createdAt,value
2019-03-18T00:00:15.889Z,3.70
2019-03-18T00:02:44.602Z,3.80
2019-03-18T00:05:13.245Z,3.70
2019-03-18T00:07:41.739Z,3.70
2019-03-18T00:10:10.377Z,3.70
2019-03-18T00:12:38.934Z,3.70
2019-03-18T00:15:09.073Z,3.70
2019-03-18T00:17:37.717Z,3.70
2019-03-18T00:20:08.047Z,3.70
2019-03-18T00:22:36.687Z,3.70
2019-03-18T00:25:08.717Z,3.70
2019-03-18T00:27:37.213Z,3.70
2019-03-18T00:30:11.573Z,3.70
2019-03-18T00:32:40.126Z,3.70
2019-03-18T00:35:08.770Z,3.60
2019-03-18T00:37:38.606Z,3.60
2019-03-18T00:40:10.498Z,3.60
2019-03-18T00:42:39.062Z,3.60
2019-03-18T00:45:14.581Z,3.60
2019-03-18T00:47:38.389Z,3.60
2019-03-18T00:50:09.530Z,3.60
2019-03-18T00:52:38.147Z,3.60
2019-03-18T00:55:08.501Z,3.60
2019-03-18T00:57:37.060Z,3.60
2019-03-18T01:00:09.211Z,3.60
2019-03-18T01:02:37.754Z,3.60
2019-03-18T01:05:06.865Z,3.70
2019-03-18T01:07:35.362Z,3.70
2019-03-18T01:10:06.246Z,3.70
2019-03-18T01:12:34.803Z,3.60
2019-03-18T01:15:03.587Z,3.70
2019-03-18T01:17:32.158Z,3.70
2019-03-18T01:20:00.752Z,3.70
2019-03-18T01:22:29.318Z,3.70
2019-03-18T01:24:57.890Z,3.80
2019-03-18T01:27:26.454Z,3.80
2019-03-18T01:29:55.041Z,3.90
2019-03-18T01:32:23.605Z,3.90
2019-03-18T01:34:52.158Z,3.90
2019-03-18T01:37:20.666Z,3.90
2019-03-18T01:39:49.231Z,4.00
2019-03-18T01:42:17.830Z,4.00
2019-03-18T01:44:46.370Z,4.00
2019-03-18T01:47:14.978Z,4.00
2019-03-18T01:49:43.520Z,3.90
2019-03-18T01:52:12.114Z,3.90
2019-03-18T01:54:40.682Z,3.90
2019-03-18T01:57:09.274Z,4.00
2019-03-18T01:59:37.836Z,4.00
2019-03-18T02:02:06.419Z,4.00
2019-03-18T02:04:34.983Z,4.10
2019-03-18T02:07:03.517Z,4.10
2019-03-18T02:09:32.098Z,4.10
2019-03-18T02:12:00.689Z,4.20
2019-03-18T02:14:29.251Z,4.20
2019-03-18T02:16:57.843Z,4.20
2019-03-18T02:19:26.418Z,4.20
2019-03-18T02:21:55.001Z,4.10
2019-03-18T02:24:23.495Z,4.10
2019-03-18T02:26:52.089Z,4.00
2019-03-18T02:29:20.633Z,4.00
2019-03-18T02:31:49.134Z,3.90
2019-03-18T02:34:17.704Z,3.90
2019-03-18T02:36:46.289Z,3.90
2019-03-18T02:39:14.866Z,3.90
2019-03-18T02:41:43.447Z,3.90
2019-03-18T02:44:11.947Z,3.90
2019-03-18T02:46:40.520Z,3.90
2019-03-18T02:49:09.158Z,3.90
2019-03-18T02:51:37.762Z,4.00
2019-03-18T02:54:06.397Z,4.00
2019-03-18T02:56:35.010Z,4.00
2019-03-18T02:59:03.640Z,4.00
2019-03-18T03:01:32.308Z,4.00
2019-03-18T03:04:00.862Z,3.90
2019-03-18T03:06:29.452Z,3.90
2019-03-18T03:08:58.004Z,4.00
2019-03-18T03:11:26.674Z,4.00
2019-03-18T03:13:55.244Z,4.00
2019-03-18T03:16:26.891Z,4.00
2019-03-18T03:18:54.034Z,4.00
2019-03-18T03:21:22.617Z,4.00
2019-03-18T03:23:51.191Z,4.00
2019-03-18T03:26:19.793Z,4.10
2019-03-18T03:28:48.376Z,4.10
2019-03-18T03:31:16.974Z,4.10
2019-03-18T03:33:45.550Z,4.00
2019-03-18T03:36:14.132Z,4.10
2019-03-18T03:38:42.708Z,4.20
2019-03-18T03:41:11.300Z,4.20
2019-03-18T03:43:39.862Z,4.20
2019-03-18T03:46:08.455Z,4.20
2019-03-18T03:48:37.019Z,4.20
2019-03-18T03:51:05.608Z,4.10
2019-03-18T03:53:34.174Z,4.00
2019-03-18T03:56:02.831Z,4.00
2019-03-18T03:58:32.919Z,4.00
2019-03-18T04:01:01.771Z,4.00
2019-03-18T04:03:38.235Z,4.10
2019-03-18T04:06:00.717Z,4.10
2019-03-18T04:08:29.349Z,4.10
2019-03-18T04:10:57.939Z,4.10
2019-03-18T04:13:26.499Z,4.00
2019-03-18T04:15:55.068Z,4.00
2019-03-18T04:18:23.671Z,4.00
2019-03-18T04:20:52.324Z,4.00
2019-03-18T04:23:20.899Z,3.90
2019-03-18T04:25:49.394Z,3.80
2019-03-18T04:28:17.995Z,3.80
2019-03-18T04:30:46.559Z,3.90
2019-03-18T04:33:15.150Z,3.90
2019-03-18T04:35:43.719Z,3.90
2019-03-18T04:38:12.300Z,4.00
2019-03-18T04:40:40.866Z,4.00
2019-03-18T04:43:09.467Z,4.10
2019-03-18T04:45:38.055Z,4.10
2019-03-18T04:48:06.627Z,4.20
2019-03-18T04:50:35.202Z,4.10
2019-03-18T04:53:03.787Z,4.10
2019-03-18T04:55:32.354Z,4.10
2019-03-18T04:58:00.870Z,4.00
2019-03-18T05:00:29.514Z,4.00
2019-03-18T05:02:58.098Z,4.00
2019-03-18T05:05:26.589Z,4.00
2019-03-18T05:07:55.110Z,3.90
2019-03-18T05:10:23.678Z,3.90
2019-03-18T05:12:52.203Z,3.80
2019-03-18T05:15:20.690Z,3.80
2019-03-18T05:17:49.202Z,3.80
2019-03-18T05:20:17.711Z,3.80
2019-03-18T05:22:46.302Z,3.80
2019-03-18T05:25:14.866Z,3.80
2019-03-18T05:27:43.457Z,3.70
2019-03-18T05:30:13.498Z,3.70
2019-03-18T05:32:42.074Z,3.70
2019-03-18T05:35:10.789Z,3.70
2019-03-18T05:37:39.387Z,3.60
2019-03-18T05:40:08.493Z,3.60
2019-03-18T05:42:37.155Z,3.60
2019-03-18T05:45:08.553Z,3.60
2019-03-18T05:47:39.468Z,3.60
2019-03-18T05:50:09.534Z,3.70
2019-03-18T05:52:38.115Z,3.70
2019-03-18T05:55:07.923Z,3.80
2019-03-18T05:57:36.510Z,3.90
2019-03-18T06:00:08.055Z,4.00
2019-03-18T06:02:36.644Z,4.00
2019-03-18T06:05:06.455Z,4.00
2019-03-18T06:07:35.120Z,4.00
2019-03-18T06:10:05.787Z,4.00
2019-03-18T06:12:34.375Z,4.00
2019-03-18T06:15:02.867Z,4.20
2019-03-18T06:17:31.460Z,4.20
2019-03-18T06:20:00.031Z,4.30
2019-03-18T06:22:28.640Z,4.40
2019-03-18T06:24:57.181Z,4.40
2019-03-18T06:27:25.690Z,4.50
2019-03-18T06:29:54.185Z,4.60
2019-03-18T06:32:22.792Z,4.70
2019-03-18T06:34:51.354Z,4.80
2019-03-18T06:37:19.948Z,5.00
2019-03-18T06:39:48.518Z,5.10
2019-03-18T06:42:18.645Z,5.10
2019-03-18T06:44:47.381Z,5.10
2019-03-18T06:47:15.966Z,5.60
2019-03-18T06:49:44.450Z,6.30
2019-03-18T06:52:13.025Z,6.10
2019-03-18T06:54:41.520Z,6.00
2019-03-18T06:57:10.094Z,5.70
2019-03-18T06:59:38.589Z,5.70
2019-03-18T07:02:07.179Z,5.60
2019-03-18T07:04:35.751Z,5.70
2019-03-18T07:07:04.310Z,5.70
2019-03-18T07:09:32.906Z,5.80
2019-03-18T07:12:01.422Z,5.90
2019-03-18T07:14:29.911Z,5.80
2019-03-18T07:16:58.470Z,5.80
2019-03-18T07:19:27.063Z,5.80
2019-03-18T07:21:55.633Z,5.80
2019-03-18T07:24:24.223Z,6.10
2019-03-18T07:26:52.790Z,6.20
2019-03-18T07:29:21.385Z,6.20
2019-03-18T07:31:49.963Z,6.20
2019-03-18T07:34:18.557Z,6.20
2019-03-18T07:36:47.185Z,6.20
2019-03-18T07:39:15.771Z,6.20
2019-03-18T07:41:44.342Z,6.30
2019-03-18T07:44:12.935Z,6.30
2019-03-18T07:46:41.495Z,6.40
2019-03-18T07:49:10.084Z,6.30
2019-03-18T07:51:38.642Z,6.40
2019-03-18T07:54:07.163Z,6.50
2019-03-18T07:56:35.723Z,6.40
2019-03-18T07:59:04.316Z,6.40
2019-03-18T08:01:32.882Z,6.40
2019-03-18T08:04:01.593Z,6.40
2019-03-18T08:06:30.134Z,6.70
2019-03-18T08:08:58.646Z,7.00
2019-03-18T08:11:27.210Z,7.00
2019-03-18T08:13:55.808Z,6.90
2019-03-18T08:16:24.374Z,7.10
2019-03-18T08:18:52.977Z,7.10
2019-03-18T08:21:21.475Z,7.10
2019-03-18T08:23:50.062Z,7.10
2019-03-18T08:26:18.622Z,7.00
2019-03-18T08:28:47.129Z,6.80
2019-03-18T08:31:15.622Z,6.80
2019-03-18T08:33:44.224Z,6.90
2019-03-18T08:36:12.789Z,6.90
2019-03-18T08:38:41.369Z,7.10
2019-03-18T08:41:09.930Z,7.20
2019-03-18T08:43:38.454Z,7.40
2019-03-18T08:46:07.015Z,7.50
2019-03-18T08:48:35.613Z,7.30
2019-03-18T08:51:04.253Z,7.30
2019-03-18T08:53:32.838Z,7.30
2019-03-18T08:56:01.406Z,7.40
2019-03-18T08:58:31.526Z,7.50
2019-03-18T09:01:00.030Z,7.50
2019-03-18T09:03:28.618Z,7.60
2019-03-18T09:05:57.186Z,7.60
2019-03-18T09:08:26.586Z,7.70
2019-03-18T09:10:55.310Z,8.00
2019-03-18T09:13:23.885Z,8.00
2019-03-18T09:15:52.375Z,8.10
2019-03-18T09:18:20.963Z,7.90
2019-03-18T09:20:49.538Z,8.00
2019-03-18T09:23:18.120Z,8.00
2019-03-18T09:25:46.689Z,7.90
2019-03-18T09:28:15.289Z,8.00
2019-03-18T09:30:43.910Z,8.10
2019-03-18T09:33:12.496Z,8.30
2019-03-18T09:35:41.650Z,8.60
2019-03-18T09:38:10.244Z,8.70
2019-03-18T09:40:38.891Z,8.80
2019-03-18T09:43:07.483Z,8.90
2019-03-18T09:45:36.118Z,8.70
2019-03-18T09:48:04.795Z,8.70
2019-03-18T09:50:33.442Z,8.60
2019-03-18T09:53:01.955Z,8.50
2019-03-18T09:55:30.509Z,8.60
2019-03-18T09:57:59.082Z,8.90
2019-03-18T10:00:27.593Z,9.10
2019-03-18T10:02:56.158Z,9.20
2019-03-18T10:05:24.742Z,9.10
2019-03-18T10:07:53.307Z,8.90
2019-03-18T10:10:22.654Z,8.80
2019-03-18T10:12:51.169Z,8.60
2019-03-18T10:15:21.459Z,8.70
2019-03-18T10:17:50.026Z,8.90
2019-03-18T10:20:18.678Z,9.10
2019-03-18T10:22:47.253Z,9.40
2019-03-18T10:25:15.836Z,9.50
2019-03-18T10:27:44.411Z,9.70
2019-03-18T10:30:14.238Z,9.60
2019-03-18T10:32:42.811Z,9.30
2019-03-18T10:35:11.527Z,9.20
2019-03-18T10:37:40.170Z,9.10
2019-03-18T10:40:10.863Z,9.00
2019-03-18T10:42:39.418Z,8.90
2019-03-18T10:45:11.058Z,9.30
2019-03-18T10:47:39.648Z,9.50
2019-03-18T10:50:20.133Z,9.50
2019-03-18T10:52:48.746Z,9.50
2019-03-18T10:57:52.479Z,9.10
2019-03-18T11:00:21.222Z,8.90
2019-03-18T11:02:49.860Z,8.80
2019-03-18T11:05:18.586Z,8.60
2019-03-18T11:07:47.158Z,8.50
2019-03-18T11:10:16.581Z,8.40
2019-03-18T11:12:45.141Z,8.50
2019-03-18T11:15:15.867Z,8.60
2019-03-18T11:17:44.567Z,8.60
2019-03-18T11:20:14.193Z,8.70
2019-03-18T11:22:42.755Z,8.70
2019-03-18T11:25:12.496Z,8.70
2019-03-18T11:27:41.147Z,8.60
2019-03-18T11:30:14.755Z,8.60
2019-03-18T11:32:43.394Z,8.40
2019-03-18T11:35:12.178Z,8.20
2019-03-18T11:37:41.124Z,7.80
2019-03-18T11:40:14.973Z,7.50
2019-03-18T11:42:43.541Z,7.30
2019-03-18T11:45:13.768Z,7.10
2019-03-18T11:47:42.335Z,7.20
2019-03-18T11:50:13.345Z,7.20
2019-03-18T11:52:41.915Z,7.20
2019-03-18T11:55:19.308Z,7.20
2019-03-18T11:57:47.868Z,7.20
2019-03-18T12:00:21.450Z,7.10
2019-03-18T12:02:50.019Z,7.10
2019-03-18T12:05:21.411Z,7.20
2019-03-18T12:07:50.044Z,7.40
2019-03-18T12:10:19.474Z,7.70
2019-03-18T12:12:48.114Z,8.00
2019-03-18T12:15:21.539Z,8.30
2019-03-18T12:17:49.996Z,8.50
2019-03-18T12:20:24.812Z,8.70
2019-03-18T12:22:50.440Z,8.90
2019-03-18T12:25:19.030Z,9.00
2019-03-18T12:27:47.638Z,9.00
2019-03-18T12:30:20.059Z,8.90
2019-03-18T12:32:48.687Z,8.90
2019-03-18T12:35:17.334Z,8.90
2019-03-18T12:37:45.899Z,9.00
2019-03-18T12:40:15.327Z,9.10
2019-03-18T12:42:44.226Z,9.20
2019-03-18T12:45:17.788Z,9.30
2019-03-18T12:47:46.426Z,9.30
2019-03-18T12:50:16.781Z,9.40
2019-03-18T12:52:46.756Z,9.50
2019-03-18T12:55:15.485Z,9.50
2019-03-18T12:57:44.113Z,9.80
2019-03-18T13:00:26.955Z,10.00
2019-03-18T13:02:55.533Z,10.20
2019-03-18T13:05:24.194Z,10.40
2019-03-18T13:07:52.766Z,10.40
2019-03-18T13:10:22.114Z,9.90
2019-03-18T13:12:50.883Z,8.90
2019-03-18T13:15:20.413Z,8.30
2019-03-18T13:17:49.166Z,8.00
2019-03-18T13:20:22.606Z,7.60
2019-03-18T13:22:54.152Z,7.40
2019-03-18T13:25:26.441Z,7.30
2019-03-18T13:27:55.008Z,7.20
2019-03-18T13:30:25.508Z,7.20
2019-03-18T13:32:54.205Z,7.30
2019-03-18T13:35:22.879Z,7.60
2019-03-18T13:37:51.450Z,7.90
2019-03-18T13:40:20.190Z,8.20
2019-03-18T13:42:48.754Z,8.30
2019-03-18T13:45:18.281Z,8.50
2019-03-18T13:47:46.778Z,8.60
2019-03-18T13:50:20.266Z,8.50
2019-03-18T13:52:48.890Z,8.40
2019-03-18T13:55:19.078Z,8.50
2019-03-18T13:57:47.779Z,8.60
2019-03-18T14:00:20.294Z,8.60
2019-03-18T14:02:48.867Z,8.70
2019-03-18T14:08:00.274Z,8.90
2019-03-18T14:10:25.124Z,8.90
2019-03-18T14:12:53.679Z,8.90
2019-03-18T14:15:24.753Z,8.90
2019-03-18T14:17:53.382Z,9.00
2019-03-18T14:20:24.177Z,9.20
2019-03-18T14:22:52.810Z,9.40
2019-03-18T14:25:21.394Z,9.70
2019-03-18T14:27:50.121Z,10.00
2019-03-18T14:30:19.790Z,10.30
2019-03-18T14:32:48.408Z,10.30
2019-03-18T14:35:17.055Z,10.20
2019-03-18T14:37:45.697Z,10.20
2019-03-18T14:40:20.141Z,10.40
2019-03-18T14:42:48.710Z,10.40
2019-03-18T14:45:18.749Z,9.90
2019-03-18T14:47:47.373Z,9.70
2019-03-18T14:50:16.903Z,9.50
2019-03-18T14:52:45.542Z,9.30
2019-03-18T14:55:17.663Z,9.20
2019-03-18T14:57:46.293Z,9.30
2019-03-18T15:00:22.810Z,9.30
2019-03-18T15:02:51.516Z,9.40
2019-03-18T15:05:20.189Z,9.40
2019-03-18T15:07:48.741Z,9.10
2019-03-18T15:10:18.698Z,9.00
2019-03-18T15:12:47.261Z,8.90
2019-03-18T15:15:19.385Z,8.90
2019-03-18T15:17:47.876Z,9.00
2019-03-18T15:20:19.067Z,9.10
2019-03-18T15:22:49.354Z,9.10
2019-03-18T15:25:25.631Z,9.00
2019-03-18T15:27:54.690Z,9.00
2019-03-18T15:30:23.350Z,8.80
2019-03-18T15:32:51.982Z,8.70
2019-03-18T15:35:20.541Z,8.50
2019-03-18T15:37:49.120Z,8.40
2019-03-18T15:40:27.549Z,8.40
2019-03-18T15:42:56.358Z,8.40
2019-03-18T15:45:25.064Z,8.40
2019-03-18T15:47:53.749Z,8.40
2019-03-18T15:50:25.777Z,8.40
2019-03-18T15:52:54.466Z,8.00
2019-03-18T15:55:24.345Z,7.70
2019-03-18T15:57:53.456Z,7.10
2019-03-18T16:00:29.034Z,6.70
2019-03-18T16:02:57.762Z,6.50
2019-03-18T16:05:26.323Z,6.50
2019-03-18T16:07:55.065Z,6.50
2019-03-18T16:10:23.629Z,6.50
2019-03-18T16:12:52.201Z,6.60
2019-03-18T16:15:20.761Z,6.70
2019-03-18T16:17:49.340Z,6.70
2019-03-18T16:20:20.409Z,6.80
2019-03-18T16:22:49.006Z,6.70
2019-03-18T16:25:17.622Z,6.60
2019-03-18T16:27:46.201Z,6.50
2019-03-18T16:30:15.931Z,6.50
2019-03-18T16:32:44.682Z,6.50
2019-03-18T16:35:15.900Z,6.50
2019-03-18T16:37:44.858Z,6.50
2019-03-18T16:40:14.957Z,6.50
2019-03-18T16:42:43.688Z,6.60
2019-03-18T16:45:17.018Z,6.60
2019-03-18T16:47:45.610Z,6.70
2019-03-18T16:50:16.686Z,6.60
2019-03-18T16:52:45.270Z,6.60
2019-03-18T16:55:13.990Z,6.60
2019-03-18T16:57:42.574Z,6.50
2019-03-18T17:00:14.071Z,6.50
2019-03-18T17:02:42.925Z,6.50
2019-03-18T17:05:11.555Z,6.50
2019-03-18T17:07:40.146Z,6.40
2019-03-18T17:10:13.870Z,6.40
2019-03-18T17:12:42.617Z,6.40
2019-03-18T17:15:12.645Z,6.40
2019-03-18T17:17:41.162Z,6.40
2019-03-18T17:20:12.804Z,6.30
2019-03-18T17:22:48.795Z,6.30
2019-03-18T17:25:14.490Z,6.20
2019-03-18T17:27:43.215Z,6.20
2019-03-18T17:30:16.309Z,6.10
2019-03-18T17:32:44.920Z,6.00
2019-03-18T17:35:13.599Z,5.90
2019-03-18T17:37:42.181Z,5.90
2019-03-18T17:40:12.883Z,5.80
2019-03-18T17:42:41.493Z,5.80
2019-03-18T17:45:17.587Z,5.80
2019-03-18T17:47:46.232Z,5.80
2019-03-18T17:50:22.225Z,5.80
2019-03-18T17:53:01.757Z,5.70
2019-03-18T17:55:21.029Z,5.70
2019-03-18T17:57:49.696Z,5.60
2019-03-18T18:00:20.341Z,5.60
2019-03-18T18:02:48.984Z,5.60
2019-03-18T18:05:17.541Z,5.60
2019-03-18T18:07:46.203Z,5.60
2019-03-18T18:10:14.769Z,5.50
2019-03-18T18:12:43.370Z,5.50
2019-03-18T18:15:12.445Z,5.40
2019-03-18T18:17:41.470Z,5.40
2019-03-18T18:20:14.255Z,5.30
2019-03-18T18:22:42.831Z,5.30
2019-03-18T18:25:15.454Z,5.30
2019-03-18T18:27:44.120Z,5.20
2019-03-18T18:30:15.280Z,5.20
2019-03-18T18:32:43.993Z,5.20
2019-03-18T18:35:13.427Z,5.10
2019-03-18T18:37:42.250Z,5.10
2019-03-18T18:40:15.838Z,5.00
2019-03-18T18:42:44.409Z,5.00
2019-03-18T18:45:13.506Z,5.00
2019-03-18T18:47:42.090Z,5.00
2019-03-18T18:50:11.694Z,4.90
2019-03-18T18:52:40.302Z,4.90
2019-03-18T18:55:11.385Z,4.90
2019-03-18T18:57:40.013Z,4.90
2019-03-18T19:00:11.596Z,4.90
2019-03-18T19:02:40.186Z,4.80
2019-03-18T19:05:11.296Z,4.80
2019-03-18T19:07:39.882Z,4.80
2019-03-18T19:10:11.382Z,4.80
2019-03-18T19:12:39.987Z,4.70
2019-03-18T19:15:14.223Z,4.70
2019-03-18T19:17:42.820Z,4.60
2019-03-18T19:20:13.228Z,4.60
2019-03-18T19:22:41.827Z,4.60
2019-03-18T19:25:14.617Z,4.60
2019-03-18T19:27:43.491Z,4.50
2019-03-18T19:30:19.811Z,4.50
2019-03-18T19:32:48.630Z,4.50
2019-03-18T19:35:17.187Z,4.50
2019-03-18T19:37:45.848Z,4.50
2019-03-18T19:40:15.654Z,4.50
2019-03-18T19:42:44.234Z,4.50
2019-03-18T19:45:13.946Z,4.40
2019-03-18T19:47:42.610Z,4.40
2019-03-18T19:50:17.215Z,4.40
2019-03-18T19:52:45.793Z,4.40
2019-03-18T19:55:15.657Z,4.30
2019-03-18T19:57:44.225Z,4.30
2019-03-18T20:00:15.606Z,4.30
2019-03-18T20:02:45.786Z,4.30
2019-03-18T20:05:15.816Z,4.20
2019-03-18T20:07:44.724Z,4.20
2019-03-18T20:10:18.802Z,4.10
2019-03-18T20:12:47.394Z,4.10
2019-03-18T20:15:16.995Z,4.10
2019-03-18T20:17:47.547Z,4.10
2019-03-18T20:20:22.727Z,4.10
2019-03-18T20:22:51.401Z,4.10
2019-03-18T20:25:22.812Z,4.10
2019-03-18T20:27:54.410Z,4.10
2019-03-18T20:30:23.622Z,4.00
2019-03-18T20:32:52.138Z,4.00
2019-03-18T20:35:27.849Z,4.00
2019-03-18T20:37:56.447Z,4.00
2019-03-18T20:40:25.138Z,3.90
2019-03-18T20:42:53.720Z,3.90
2019-03-18T20:45:31.113Z,3.80
2019-03-18T20:47:53.894Z,3.90
2019-03-18T20:50:23.126Z,3.90
2019-03-18T20:52:51.881Z,3.90
2019-03-18T20:55:20.611Z,3.90
2019-03-18T20:57:49.341Z,3.80
2019-03-18T21:00:22.815Z,3.80
2019-03-18T21:02:51.558Z,3.80
2019-03-18T21:05:24.992Z,3.70
2019-03-18T21:07:55.842Z,3.70
2019-03-18T21:10:25.654Z,3.60
2019-03-18T21:12:58.600Z,3.60
2019-03-18T21:15:27.307Z,3.60
2019-03-18T21:17:56.191Z,3.50
2019-03-18T21:20:28.834Z,3.50
2019-03-18T21:22:59.409Z,3.50
2019-03-18T21:25:29.970Z,3.40
2019-03-18T21:27:59.355Z,3.40
2019-03-18T21:30:30.658Z,3.30
2019-03-18T21:32:59.368Z,3.30
2019-03-18T21:35:27.961Z,3.30
2019-03-18T21:37:58.013Z,3.20
2019-03-18T21:40:29.494Z,3.20
2019-03-18T21:43:01.133Z,3.20
2019-03-18T21:45:31.302Z,3.10
2019-03-18T21:48:00.113Z,3.10
2019-03-18T21:50:31.125Z,3.10
2019-03-18T21:52:59.731Z,3.10
2019-03-18T21:55:28.359Z,3.00
2019-03-18T21:57:56.928Z,3.00
2019-03-18T22:00:25.514Z,3.00
2019-03-18T22:02:54.009Z,3.00
2019-03-18T22:05:22.527Z,3.00
2019-03-18T22:07:51.098Z,3.00
2019-03-18T22:10:20.522Z,2.90
2019-03-18T22:12:49.224Z,2.90
2019-03-18T22:15:17.878Z,2.90
2019-03-18T22:17:46.449Z,2.90
2019-03-18T22:20:18.606Z,2.90
2019-03-18T22:22:47.171Z,2.90
2019-03-18T22:25:16.402Z,2.90
2019-03-18T22:27:45.038Z,2.90
2019-03-18T22:30:15.264Z,2.90
2019-03-18T22:32:43.904Z,2.90
2019-03-18T22:35:12.733Z,2.90
2019-03-18T22:37:41.440Z,2.90
2019-03-18T22:40:12.245Z,2.80
2019-03-18T22:42:40.805Z,2.80
2019-03-18T22:45:13.894Z,2.80
2019-03-18T22:47:42.594Z,2.80
2019-03-18T22:50:14.637Z,2.80
2019-03-18T22:52:43.135Z,2.80
2019-03-18T22:55:13.181Z,2.80
2019-03-18T22:57:41.926Z,2.70
2019-03-18T23:00:22.569Z,2.70
2019-03-18T23:02:51.457Z,2.70
2019-03-18T23:05:20.105Z,2.60
2019-03-18T23:07:48.740Z,2.60
2019-03-18T23:10:17.338Z,2.60
2019-03-18T23:12:45.907Z,2.60
2019-03-18T23:15:14.555Z,2.60
2019-03-18T23:17:43.126Z,2.60
2019-03-18T23:20:12.462Z,2.50
2019-03-18T23:22:41.031Z,2.50
2019-03-18T23:25:09.767Z,2.50
2019-03-18T23:27:38.410Z,2.60
2019-03-18T23:30:14.487Z,2.60
2019-03-18T23:32:43.105Z,2.60
2019-03-18T23:35:11.886Z,2.60
2019-03-18T23:37:40.526Z,2.60
2019-03-18T23:40:11.046Z,2.60
2019-03-18T23:42:39.670Z,2.60
2019-03-18T23:45:09.205Z,2.50
2019-03-18T23:47:37.838Z,2.50
2019-03-18T23:50:11.566Z,2.40
2019-03-18T23:52:40.070Z,2.40
2019-03-18T23:55:18.452Z,2.40
2019-03-18T23:57:39.704Z,2.40
